AMX307 MMVR-MMUN
Flight info
| Callsign | AMX307 |
|---|---|
| Flight time | 1h 12m |
| Altitude | 37000 |
| Route | GOTAS1C GOTAS DCT DUSOV UJ18 MID UJ16 XUDUN XUDUN1A |
| Aircraft | B738/M-SDE2E3FGHIRWXY/LB1 |
Departure
| Time | 2026-04-12 02:20 |
|---|---|
| Airport | General Heriberto Jara International Airport (MMVR) |
Arrival
| Time | 2026-04-12 03:33 |
|---|---|
| Airport | Cancún International Airport (MMUN) |
| Time | Latitude | Longitude | Altitude | Speed | Heading |
|---|---|---|---|---|---|
| 2026-04-12 01:57 | 19.14221 | -96.18444 | 116 ft | 0 kts | 101° |
| 2026-04-12 02:07 | 19.14222 | -96.18449 | 99 ft | 2 kts | 102° |
| 2026-04-12 02:07 | 19.14227 | -96.18469 | 99 ft | 3 kts | 111° |
| 2026-04-12 02:07 | 19.14236 | -96.18488 | 118 ft | 3 kts | 128° |
| 2026-04-12 02:07 | 19.14249 | -96.18502 | 118 ft | 3 kts | 160° |
| 2026-04-12 02:08 | 19.14261 | -96.18505 | 115 ft | 1 kts | 191° |
| 2026-04-12 02:08 | 19.14262 | -96.18505 | 115 ft | 1 kts | 191° |
| 2026-04-12 02:14 | 19.14261 | -96.18505 | 115 ft | 1 kts | 191° |
| 2026-04-12 02:14 | 19.14245 | -96.18508 | 114 ft | 4 kts | 193° |
| 2026-04-12 02:15 | 19.14211 | -96.18535 | 116 ft | 8 kts | 246° |
| 2026-04-12 02:15 | 19.14209 | -96.18610 | 112 ft | 12 kts | 252° |
| 2026-04-12 02:15 | 19.14155 | -96.18672 | 114 ft | 11 kts | 221° |
| 2026-04-12 02:15 | 19.14096 | -96.18726 | 114 ft | 11 kts | 220° |
| 2026-04-12 02:16 | 19.14037 | -96.18780 | 115 ft | 12 kts | 221° |
| 2026-04-12 02:16 | 19.13966 | -96.18846 | 114 ft | 16 kts | 221° |
| 2026-04-12 02:16 | 19.13852 | -96.18888 | 114 ft | 19 kts | 191° |
| 2026-04-12 02:16 | 19.13714 | -96.18917 | 116 ft | 21 kts | 191° |
| 2026-04-12 02:17 | 19.13575 | -96.18945 | 115 ft | 21 kts | 191° |
| 2026-04-12 02:17 | 19.13420 | -96.18978 | 116 ft | 25 kts | 191° |
| 2026-04-12 02:17 | 19.13237 | -96.19015 | 115 ft | 28 kts | 191° |
| 2026-04-12 02:17 | 19.13052 | -96.19053 | 116 ft | 24 kts | 191° |
| 2026-04-12 02:18 | 19.12946 | -96.19070 | 113 ft | 13 kts | 172° |
| 2026-04-12 02:18 | 19.12871 | -96.19040 | 114 ft | 10 kts | 189° |
| 2026-04-12 02:18 | 19.12871 | -96.19092 | 114 ft | 9 kts | 338° |
| 2026-04-12 02:18 | 19.12894 | -96.19087 | 112 ft | 0 kts | 13° |
| 2026-04-12 02:19 | 19.12925 | -96.19080 | 112 ft | 21 kts | 12° |
| 2026-04-12 02:19 | 19.13330 | -96.18995 | 117 ft | 96 kts | 11° |
| 2026-04-12 02:20 | 19.14210 | -96.18813 | 114 ft | 159 kts | 11° |
| 2026-04-12 02:20 | 19.15362 | -96.18572 | 735 ft | 167 kts | 12° |
| 2026-04-12 02:20 | 19.16512 | -96.18329 | 1554 ft | 171 kts | 13° |
| 2026-04-12 02:20 | 19.17715 | -96.18079 | 2196 ft | 186 kts | 13° |
| 2026-04-12 02:21 | 19.19078 | -96.17786 | 2518 ft | 212 kts | 13° |
| 2026-04-12 02:21 | 19.20601 | -96.17463 | 2783 ft | 234 kts | 15° |
| 2026-04-12 02:21 | 19.22005 | -96.16582 | 3248 ft | 243 kts | 52° |
| 2026-04-12 02:21 | 19.22659 | -96.14889 | 3701 ft | 259 kts | 85° |
| 2026-04-12 02:22 | 19.22782 | -96.12970 | 4460 ft | 264 kts | 87° |
| 2026-04-12 02:22 | 19.22880 | -96.11016 | 5301 ft | 267 kts | 88° |
| 2026-04-12 02:22 | 19.22980 | -96.09042 | 6112 ft | 271 kts | 87° |
| 2026-04-12 02:22 | 19.23087 | -96.07046 | 6905 ft | 274 kts | 87° |
| 2026-04-12 02:23 | 19.23201 | -96.05055 | 7701 ft | 275 kts | 87° |
| 2026-04-12 02:23 | 19.23321 | -96.03028 | 8502 ft | 277 kts | 87° |
| 2026-04-12 02:23 | 19.23447 | -96.00982 | 9288 ft | 279 kts | 88° |
| 2026-04-12 02:23 | 19.23577 | -95.98925 | 10073 ft | 282 kts | 88° |
| 2026-04-12 02:24 | 19.23711 | -95.96807 | 10470 ft | 299 kts | 87° |
| 2026-04-12 02:24 | 19.23858 | -95.94519 | 10627 ft | 322 kts | 87° |
| 2026-04-12 02:24 | 19.24016 | -95.92073 | 10793 ft | 343 kts | 86° |
| 2026-04-12 02:24 | 19.24183 | -95.89512 | 11181 ft | 354 kts | 86° |
| 2026-04-12 02:25 | 19.24354 | -95.86896 | 11773 ft | 358 kts | 86° |
| 2026-04-12 02:25 | 19.24528 | -95.84261 | 12416 ft | 360 kts | 86° |
| 2026-04-12 02:25 | 19.24702 | -95.81603 | 13032 ft | 363 kts | 85° |
| 2026-04-12 02:25 | 19.24878 | -95.78920 | 13632 ft | 367 kts | 85° |
| 2026-04-12 02:26 | 19.25054 | -95.76215 | 14175 ft | 371 kts | 85° |
| 2026-04-12 02:26 | 19.25231 | -95.73510 | 14650 ft | 375 kts | 85° |
| 2026-04-12 02:26 | 19.25411 | -95.70730 | 15135 ft | 380 kts | 85° |
| 2026-04-12 02:26 | 19.25592 | -95.67929 | 15608 ft | 384 kts | 85° |
| 2026-04-12 02:27 | 19.25775 | -95.65095 | 16079 ft | 388 kts | 85° |
| 2026-04-12 02:27 | 19.25960 | -95.62232 | 16566 ft | 392 kts | 85° |
| 2026-04-12 02:27 | 19.26145 | -95.59341 | 17022 ft | 396 kts | 85° |
| 2026-04-12 02:27 | 19.26333 | -95.56411 | 17466 ft | 401 kts | 85° |
| 2026-04-12 02:28 | 19.26522 | -95.53457 | 17889 ft | 405 kts | 85° |
| 2026-04-12 02:28 | 19.26713 | -95.50458 | 18305 ft | 410 kts | 85° |
| 2026-04-12 02:28 | 19.26905 | -95.47435 | 18678 ft | 414 kts | 85° |
| 2026-04-12 02:28 | 19.27098 | -95.44388 | 19086 ft | 416 kts | 85° |
| 2026-04-12 02:29 | 19.27292 | -95.41317 | 19482 ft | 419 kts | 85° |
| 2026-04-12 02:29 | 19.27487 | -95.38227 | 19860 ft | 422 kts | 85° |
| 2026-04-12 02:29 | 19.27682 | -95.35116 | 20236 ft | 425 kts | 85° |
| 2026-04-12 02:29 | 19.27879 | -95.31978 | 20607 ft | 428 kts | 86° |
| 2026-04-12 02:30 | 19.28077 | -95.28818 | 20993 ft | 431 kts | 86° |
| 2026-04-12 02:30 | 19.28274 | -95.25648 | 21377 ft | 433 kts | 86° |
| 2026-04-12 02:30 | 19.28473 | -95.22459 | 21748 ft | 436 kts | 86° |
| 2026-04-12 02:30 | 19.28672 | -95.19239 | 22098 ft | 439 kts | 86° |
| 2026-04-12 02:31 | 19.28870 | -95.16044 | 22458 ft | 441 kts | 86° |
| 2026-04-12 02:31 | 19.29073 | -95.12754 | 22828 ft | 444 kts | 86° |
| 2026-04-12 02:31 | 19.29272 | -95.09522 | 23165 ft | 446 kts | 86° |
| 2026-04-12 02:31 | 19.29680 | -95.06218 | 23478 ft | 450 kts | 78° |
| 2026-04-12 02:32 | 19.30545 | -95.03070 | 23776 ft | 452 kts | 68° |
| 2026-04-12 02:32 | 19.31803 | -95.00014 | 24067 ft | 454 kts | 65° |
| 2026-04-12 02:32 | 19.33122 | -94.96971 | 24340 ft | 456 kts | 65° |
| 2026-04-12 02:32 | 19.34462 | -94.93911 | 24602 ft | 458 kts | 65° |
| 2026-04-12 02:33 | 19.35802 | -94.90837 | 24855 ft | 461 kts | 65° |
| 2026-04-12 02:33 | 19.37137 | -94.87741 | 25114 ft | 463 kts | 65° |
| 2026-04-12 02:33 | 19.38468 | -94.84627 | 25369 ft | 465 kts | 65° |
| 2026-04-12 02:33 | 19.39800 | -94.81489 | 25621 ft | 468 kts | 65° |
| 2026-04-12 02:34 | 19.41133 | -94.78336 | 25864 ft | 470 kts | 65° |
| 2026-04-12 02:34 | 19.42473 | -94.75160 | 26113 ft | 472 kts | 65° |
| 2026-04-12 02:34 | 19.43817 | -94.71971 | 26351 ft | 474 kts | 65° |
| 2026-04-12 02:34 | 19.45146 | -94.68816 | 26595 ft | 476 kts | 65° |
| 2026-04-12 02:35 | 19.46499 | -94.65603 | 26825 ft | 479 kts | 65° |
| 2026-04-12 02:35 | 19.47859 | -94.62372 | 27055 ft | 481 kts | 65° |
| 2026-04-12 02:35 | 19.49226 | -94.59126 | 27299 ft | 482 kts | 65° |
| 2026-04-12 02:35 | 19.50595 | -94.55870 | 27521 ft | 484 kts | 65° |
| 2026-04-12 02:36 | 19.51969 | -94.52602 | 27736 ft | 487 kts | 65° |
| 2026-04-12 02:36 | 19.53349 | -94.49318 | 27953 ft | 488 kts | 65° |
| 2026-04-12 02:36 | 19.54673 | -94.46164 | 28174 ft | 490 kts | 65° |
| 2026-04-12 02:36 | 19.55956 | -94.43106 | 28370 ft | 492 kts | 65° |
| 2026-04-12 02:37 | 19.57432 | -94.39587 | 28585 ft | 494 kts | 65° |
| 2026-04-12 02:37 | 19.60232 | -94.32904 | 28976 ft | 497 kts | 65° |
| 2026-04-12 02:37 | 19.63045 | -94.26185 | 29377 ft | 500 kts | 65° |
| 2026-04-12 02:37 | 19.65868 | -94.19428 | 29928 ft | 500 kts | 65° |
| 2026-04-12 02:38 | 19.68684 | -94.12684 | 30454 ft | 499 kts | 65° |
| 2026-04-12 02:38 | 19.71501 | -94.05926 | 30849 ft | 501 kts | 65° |
| 2026-04-12 02:38 | 19.74320 | -93.99157 | 31340 ft | 501 kts | 65° |
| 2026-04-12 02:38 | 19.77136 | -93.92385 | 31761 ft | 503 kts | 65° |
| 2026-04-12 02:39 | 19.79958 | -93.85589 | 32219 ft | 503 kts | 65° |
| 2026-04-12 02:39 | 19.82779 | -93.78788 | 32665 ft | 504 kts | 65° |
| 2026-04-12 02:39 | 19.85567 | -93.71952 | 33147 ft | 505 kts | 69° |
| 2026-04-12 02:39 | 19.87608 | -93.64795 | 33576 ft | 506 kts | 75° |
| 2026-04-12 02:40 | 19.89495 | -93.57586 | 34015 ft | 507 kts | 73° |
| 2026-04-12 02:40 | 19.91488 | -93.50405 | 34417 ft | 507 kts | 73° |
| 2026-04-12 02:40 | 19.93498 | -93.43220 | 34853 ft | 506 kts | 73° |
| 2026-04-12 02:40 | 19.95499 | -93.36038 | 35223 ft | 506 kts | 73° |
| 2026-04-12 02:41 | 19.97492 | -93.28862 | 35634 ft | 505 kts | 73° |
| 2026-04-12 02:41 | 19.99478 | -93.21698 | 36003 ft | 506 kts | 73° |
| 2026-04-12 02:41 | 20.01435 | -93.14627 | 36410 ft | 504 kts | 73° |
| 2026-04-12 02:41 | 20.03437 | -93.07382 | 36769 ft | 504 kts | 74° |
| 2026-04-12 02:42 | 20.05408 | -93.00236 | 37093 ft | 504 kts | 74° |
| 2026-04-12 02:42 | 20.07364 | -92.93132 | 37095 ft | 509 kts | 74° |
| 2026-04-12 02:43 | 20.13337 | -92.71363 | 37067 ft | 508 kts | 74° |
| 2026-04-12 02:43 | 20.17232 | -92.57108 | 37070 ft | 497 kts | 74° |
| 2026-04-12 02:44 | 20.21063 | -92.43037 | 37099 ft | 496 kts | 74° |
| 2026-04-12 02:44 | 20.24918 | -92.28780 | 37099 ft | 506 kts | 74° |
| 2026-04-12 02:45 | 20.28151 | -92.16694 | 37090 ft | 513 kts | 74° |
| 2026-04-12 02:45 | 20.32038 | -92.02146 | 37069 ft | 507 kts | 74° |
| 2026-04-12 02:46 | 20.35871 | -91.87880 | 37069 ft | 496 kts | 74° |
| 2026-04-12 02:46 | 20.39651 | -91.73752 | 37098 ft | 497 kts | 74° |
| 2026-04-12 02:47 | 20.43468 | -91.59427 | 37098 ft | 508 kts | 74° |
| 2026-04-12 02:47 | 20.47351 | -91.44807 | 37079 ft | 513 kts | 74° |
| 2026-04-12 02:48 | 20.51201 | -91.30254 | 37064 ft | 505 kts | 74° |
| 2026-04-12 02:48 | 20.54965 | -91.15974 | 37070 ft | 496 kts | 74° |
| 2026-04-12 02:49 | 20.58695 | -91.01776 | 37095 ft | 500 kts | 74° |
| 2026-04-12 02:49 | 20.62480 | -90.87313 | 37093 ft | 511 kts | 74° |
| 2026-04-12 02:50 | 20.66311 | -90.72638 | 37073 ft | 513 kts | 74° |
| 2026-04-12 02:50 | 20.70076 | -90.58166 | 37065 ft | 503 kts | 74° |
| 2026-04-12 02:51 | 20.73797 | -90.43847 | 37080 ft | 497 kts | 74° |
| 2026-04-12 02:51 | 20.77505 | -90.29536 | 37105 ft | 505 kts | 74° |
| 2026-04-12 02:52 | 20.81280 | -90.14901 | 37101 ft | 515 kts | 74° |
| 2026-04-12 02:52 | 20.85063 | -90.00129 | 37078 ft | 513 kts | 74° |
| 2026-04-12 02:53 | 20.88757 | -89.85558 | 37093 ft | 502 kts | 74° |
| 2026-04-12 02:53 | 20.94258 | -89.64038 | 37121 ft | 504 kts | 70° |
| 2026-04-12 02:54 | 20.99348 | -89.49884 | 37124 ft | 514 kts | 67° |
| 2026-04-12 02:54 | 21.04426 | -89.35574 | 37079 ft | 506 kts | 68° |
| 2026-04-12 02:55 | 21.06813 | -89.28790 | 37032 ft | 479 kts | 68° |
| 2026-04-12 02:55 | 21.09092 | -89.22299 | 37032 ft | 455 kts | 68° |
| 2026-04-12 02:55 | 21.12393 | -89.12882 | 36811 ft | 445 kts | 68° |
| 2026-04-12 02:56 | 21.13482 | -89.09774 | 36214 ft | 448 kts | 67° |
| 2026-04-12 02:56 | 21.14373 | -89.06541 | 35428 ft | 459 kts | 84° |
| 2026-04-12 02:56 | 21.14210 | -89.03146 | 34989 ft | 455 kts | 106° |
| 2026-04-12 02:56 | 21.13106 | -89.00038 | 34797 ft | 441 kts | 123° |
| 2026-04-12 02:57 | 21.11320 | -88.97452 | 34527 ft | 427 kts | 140° |
| 2026-04-12 02:57 | 21.09015 | -88.95534 | 34162 ft | 415 kts | 157° |
| 2026-04-12 02:57 | 21.06385 | -88.94387 | 33718 ft | 402 kts | 173° |
| 2026-04-12 02:57 | 21.03660 | -88.94039 | 33302 ft | 389 kts | 187° |
| 2026-04-12 02:58 | 21.01021 | -88.94430 | 32890 ft | 378 kts | 202° |
| 2026-04-12 02:58 | 20.98624 | -88.95479 | 32460 ft | 368 kts | 216° |
| 2026-04-12 02:58 | 20.96571 | -88.97066 | 32039 ft | 362 kts | 227° |
| 2026-04-12 02:58 | 20.94854 | -88.99000 | 31623 ft | 356 kts | 237° |
| 2026-04-12 02:59 | 20.93605 | -89.01253 | 31459 ft | 351 kts | 249° |
| 2026-04-12 02:59 | 20.92664 | -89.03681 | 31425 ft | 355 kts | 252° |
| 2026-04-12 02:59 | 20.90960 | -89.08600 | 31406 ft | 349 kts | 252° |
| 2026-04-12 03:00 | 20.89262 | -89.13441 | 31416 ft | 348 kts | 252° |
| 2026-04-12 03:00 | 20.87533 | -89.18259 | 31411 ft | 350 kts | 251° |
| 2026-04-12 03:01 | 20.86404 | -89.23256 | 31425 ft | 345 kts | 272° |
| 2026-04-12 03:01 | 20.87372 | -89.28263 | 31419 ft | 346 kts | 292° |
| 2026-04-12 03:02 | 20.88523 | -89.30525 | 31411 ft | 348 kts | 304° |
| 2026-04-12 03:02 | 20.90135 | -89.32468 | 31409 ft | 352 kts | 317° |
| 2026-04-12 03:02 | 20.92157 | -89.33958 | 31412 ft | 356 kts | 330° |
| 2026-04-12 03:02 | 20.94491 | -89.34896 | 31416 ft | 362 kts | 343° |
| 2026-04-12 03:03 | 20.97016 | -89.35212 | 31406 ft | 369 kts | 357° |
| 2026-04-12 03:03 | 20.99582 | -89.34858 | 31408 ft | 377 kts | 11° |
| 2026-04-12 03:03 | 21.02036 | -89.33816 | 31408 ft | 384 kts | 26° |
| 2026-04-12 03:03 | 21.04215 | -89.32122 | 31418 ft | 391 kts | 39° |
| 2026-04-12 03:04 | 21.06028 | -89.29937 | 31410 ft | 397 kts | 53° |
| 2026-04-12 03:04 | 21.07306 | -89.27304 | 31419 ft | 401 kts | 65° |
| 2026-04-12 03:04 | 21.09280 | -89.21700 | 31412 ft | 403 kts | 67° |
| 2026-04-12 03:05 | 21.11214 | -89.16097 | 31417 ft | 404 kts | 66° |
| 2026-04-12 03:05 | 21.13226 | -89.10448 | 31145 ft | 417 kts | 66° |
| 2026-04-12 03:06 | 21.14301 | -89.07403 | 30402 ft | 449 kts | 67° |
| 2026-04-12 03:06 | 21.15429 | -89.04185 | 29785 ft | 472 kts | 67° |
| 2026-04-12 03:06 | 21.16598 | -89.00835 | 29247 ft | 487 kts | 67° |
| 2026-04-12 03:06 | 21.17774 | -88.97454 | 28660 ft | 482 kts | 67° |
| 2026-04-12 03:07 | 21.18937 | -88.94108 | 28134 ft | 476 kts | 67° |
| 2026-04-12 03:07 | 21.20085 | -88.90806 | 27607 ft | 470 kts | 67° |
| 2026-04-12 03:07 | 21.21222 | -88.87542 | 27078 ft | 466 kts | 67° |
| 2026-04-12 03:07 | 21.22350 | -88.84304 | 26560 ft | 461 kts | 67° |
| 2026-04-12 03:08 | 21.23467 | -88.81101 | 26050 ft | 456 kts | 67° |
| 2026-04-12 03:08 | 21.24571 | -88.77930 | 25547 ft | 452 kts | 67° |
| 2026-04-12 03:08 | 21.25650 | -88.74833 | 25053 ft | 448 kts | 67° |
| 2026-04-12 03:08 | 21.26732 | -88.71720 | 24554 ft | 444 kts | 67° |
| 2026-04-12 03:09 | 21.27807 | -88.68630 | 24058 ft | 440 kts | 68° |
| 2026-04-12 03:09 | 21.28872 | -88.65565 | 23513 ft | 438 kts | 68° |
| 2026-04-12 03:09 | 21.29929 | -88.62519 | 22944 ft | 434 kts | 68° |
| 2026-04-12 03:09 | 21.30973 | -88.59510 | 22476 ft | 428 kts | 68° |
| 2026-04-12 03:10 | 21.32006 | -88.56529 | 21952 ft | 424 kts | 68° |
| 2026-04-12 03:10 | 21.33028 | -88.53580 | 21438 ft | 420 kts | 68° |
| 2026-04-12 03:10 | 21.34040 | -88.50659 | 20940 ft | 416 kts | 68° |
| 2026-04-12 03:10 | 21.35045 | -88.47755 | 20465 ft | 412 kts | 68° |
| 2026-04-12 03:11 | 21.36027 | -88.44916 | 20322 ft | 400 kts | 68° |
| 2026-04-12 03:11 | 21.36680 | -88.42053 | 20095 ft | 393 kts | 84° |
| 2026-04-12 03:11 | 21.36485 | -88.39141 | 19635 ft | 394 kts | 100° |
| 2026-04-12 03:11 | 21.35882 | -88.36276 | 19178 ft | 393 kts | 102° |
| 2026-04-12 03:12 | 21.35242 | -88.33422 | 18684 ft | 393 kts | 102° |
| 2026-04-12 03:12 | 21.34602 | -88.30571 | 18156 ft | 393 kts | 102° |
| 2026-04-12 03:12 | 21.33974 | -88.27727 | 17642 ft | 391 kts | 102° |
| 2026-04-12 03:12 | 21.33362 | -88.24899 | 17153 ft | 389 kts | 102° |
| 2026-04-12 03:13 | 21.32759 | -88.22080 | 16671 ft | 386 kts | 101° |
| 2026-04-12 03:13 | 21.32164 | -88.19281 | 16199 ft | 384 kts | 101° |
| 2026-04-12 03:13 | 21.31574 | -88.16504 | 15733 ft | 381 kts | 101° |
| 2026-04-12 03:13 | 21.30994 | -88.13774 | 15272 ft | 379 kts | 101° |
| 2026-04-12 03:14 | 21.30410 | -88.11026 | 14812 ft | 377 kts | 101° |
| 2026-04-12 03:14 | 21.29827 | -88.08290 | 14335 ft | 376 kts | 102° |
| 2026-04-12 03:14 | 21.29242 | -88.05571 | 13857 ft | 374 kts | 102° |
| 2026-04-12 03:14 | 21.28650 | -88.02873 | 13604 ft | 364 kts | 102° |
| 2026-04-12 03:15 | 21.28081 | -88.00299 | 13263 ft | 350 kts | 102° |
| 2026-04-12 03:15 | 21.27522 | -87.97768 | 12596 ft | 347 kts | 102° |
| 2026-04-12 03:15 | 21.26969 | -87.95259 | 11953 ft | 343 kts | 102° |
| 2026-04-12 03:15 | 21.26423 | -87.92783 | 11330 ft | 340 kts | 102° |
| 2026-04-12 03:16 | 21.25885 | -87.90342 | 10908 ft | 330 kts | 102° |
| 2026-04-12 03:16 | 21.25372 | -87.88021 | 10798 ft | 311 kts | 102° |
| 2026-04-12 03:16 | 21.24887 | -87.85825 | 10676 ft | 294 kts | 101° |
| 2026-04-12 03:16 | 21.24427 | -87.83740 | 10414 ft | 285 kts | 101° |
| 2026-04-12 03:17 | 21.23975 | -87.81683 | 10038 ft | 281 kts | 101° |
| 2026-04-12 03:17 | 21.23528 | -87.79655 | 9636 ft | 279 kts | 101° |
| 2026-04-12 03:17 | 21.23082 | -87.77635 | 9241 ft | 278 kts | 101° |
| 2026-04-12 03:17 | 21.22642 | -87.75645 | 8850 ft | 277 kts | 101° |
| 2026-04-12 03:18 | 21.22197 | -87.73636 | 8467 ft | 276 kts | 102° |
| 2026-04-12 03:18 | 21.21878 | -87.71617 | 8072 ft | 274 kts | 91° |
| 2026-04-12 03:18 | 21.21856 | -87.69582 | 7696 ft | 272 kts | 87° |
| 2026-04-12 03:18 | 21.21910 | -87.67558 | 7341 ft | 272 kts | 86° |
| 2026-04-12 03:19 | 21.21971 | -87.65539 | 7083 ft | 271 kts | 86° |
| 2026-04-12 03:19 | 21.22023 | -87.63525 | 6809 ft | 269 kts | 87° |
| 2026-04-12 03:19 | 21.22067 | -87.61524 | 6546 ft | 268 kts | 87° |
| 2026-04-12 03:19 | 21.22103 | -87.59536 | 6267 ft | 267 kts | 88° |
| 2026-04-12 03:20 | 21.22136 | -87.57554 | 5999 ft | 265 kts | 88° |
| 2026-04-12 03:20 | 21.22164 | -87.55589 | 5736 ft | 263 kts | 88° |
| 2026-04-12 03:20 | 21.22190 | -87.53636 | 5474 ft | 261 kts | 88° |
| 2026-04-12 03:20 | 21.22215 | -87.51701 | 5215 ft | 259 kts | 88° |
| 2026-04-12 03:21 | 21.22238 | -87.49779 | 4964 ft | 257 kts | 89° |
| 2026-04-12 03:21 | 21.22260 | -87.47876 | 4715 ft | 254 kts | 89° |
| 2026-04-12 03:21 | 21.22282 | -87.45990 | 4474 ft | 252 kts | 89° |
| 2026-04-12 03:21 | 21.22304 | -87.44123 | 4217 ft | 249 kts | 89° |
| 2026-04-12 03:22 | 21.22325 | -87.42271 | 3976 ft | 247 kts | 89° |
| 2026-04-12 03:22 | 21.22345 | -87.40441 | 3742 ft | 244 kts | 89° |
| 2026-04-12 03:22 | 21.22365 | -87.38650 | 3507 ft | 242 kts | 89° |
| 2026-04-12 03:22 | 21.22384 | -87.36856 | 3262 ft | 240 kts | 89° |
| 2026-04-12 03:23 | 21.22404 | -87.35086 | 3061 ft | 235 kts | 89° |
| 2026-04-12 03:23 | 21.22356 | -87.33362 | 2994 ft | 226 kts | 93° |
| 2026-04-12 03:23 | 21.22247 | -87.31722 | 2971 ft | 217 kts | 93° |
| 2026-04-12 03:23 | 21.22138 | -87.30130 | 2964 ft | 211 kts | 93° |
| 2026-04-12 03:24 | 21.22035 | -87.28566 | 2976 ft | 211 kts | 93° |
| 2026-04-12 03:24 | 21.21933 | -87.26987 | 2986 ft | 214 kts | 93° |
| 2026-04-12 03:24 | 21.21831 | -87.25390 | 2989 ft | 216 kts | 93° |
| 2026-04-12 03:24 | 21.21797 | -87.23778 | 2978 ft | 217 kts | 86° |
| 2026-04-12 03:25 | 21.21888 | -87.22162 | 2981 ft | 218 kts | 86° |
| 2026-04-12 03:25 | 21.21989 | -87.20540 | 2978 ft | 218 kts | 86° |
| 2026-04-12 03:25 | 21.22082 | -87.18922 | 2981 ft | 218 kts | 86° |
| 2026-04-12 03:25 | 21.22169 | -87.17345 | 2984 ft | 217 kts | 86° |
| 2026-04-12 03:26 | 21.22234 | -87.15726 | 2979 ft | 218 kts | 93° |
| 2026-04-12 03:26 | 21.21763 | -87.14214 | 2994 ft | 219 kts | 117° |
| 2026-04-12 03:26 | 21.20941 | -87.12831 | 2985 ft | 220 kts | 121° |
| 2026-04-12 03:26 | 21.20062 | -87.11491 | 2984 ft | 220 kts | 122° |
| 2026-04-12 03:27 | 21.19187 | -87.10144 | 2984 ft | 220 kts | 121° |
| 2026-04-12 03:27 | 21.18332 | -87.08790 | 2985 ft | 219 kts | 121° |
| 2026-04-12 03:27 | 21.17509 | -87.07472 | 2994 ft | 205 kts | 120° |
| 2026-04-12 03:27 | 21.16742 | -87.06239 | 2974 ft | 193 kts | 120° |
| 2026-04-12 03:28 | 21.16007 | -87.05057 | 2977 ft | 189 kts | 120° |
| 2026-04-12 03:28 | 21.15285 | -87.03896 | 2995 ft | 185 kts | 120° |
| 2026-04-12 03:28 | 21.14574 | -87.02755 | 2995 ft | 184 kts | 120° |
| 2026-04-12 03:28 | 21.13859 | -87.01606 | 2905 ft | 187 kts | 120° |
| 2026-04-12 03:29 | 21.13131 | -87.00437 | 2685 ft | 189 kts | 120° |
| 2026-04-12 03:29 | 21.12405 | -86.99274 | 2444 ft | 186 kts | 120° |
| 2026-04-12 03:29 | 21.11694 | -86.98132 | 2197 ft | 182 kts | 120° |
| 2026-04-12 03:29 | 21.11006 | -86.97028 | 1980 ft | 178 kts | 119° |
| 2026-04-12 03:30 | 21.10336 | -86.95953 | 1742 ft | 169 kts | 119° |
| 2026-04-12 03:30 | 21.09693 | -86.94920 | 1535 ft | 164 kts | 119° |
| 2026-04-12 03:30 | 21.09081 | -86.93937 | 1351 ft | 151 kts | 119° |
| 2026-04-12 03:30 | 21.08525 | -86.93044 | 1148 ft | 141 kts | 118° |
| 2026-04-12 03:31 | 21.07989 | -86.92182 | 958 ft | 138 kts | 119° |
| 2026-04-12 03:31 | 21.07451 | -86.91319 | 774 ft | 140 kts | 119° |
| 2026-04-12 03:31 | 21.07086 | -86.90730 | 655 ft | 141 kts | 120° |
| 2026-04-12 03:31 | 21.06544 | -86.89858 | 457 ft | 143 kts | 121° |
| 2026-04-12 03:32 | 21.06005 | -86.88978 | 265 ft | 140 kts | 120° |
| 2026-04-12 03:32 | 21.05463 | -86.88122 | 96 ft | 137 kts | 117° |
| 2026-04-12 03:32 | 21.04942 | -86.87298 | 33 ft | 124 kts | 122° |
| 2026-04-12 03:32 | 21.04557 | -86.86675 | 31 ft | 70 kts | 124° |
| 2026-04-12 03:33 | 21.04381 | -86.86448 | 29 ft | 32 kts | 143° |
| 2026-04-12 03:33 | 21.04247 | -86.86364 | 34 ft | 12 kts | 153° |
| 2026-04-12 03:33 | 21.04177 | -86.86371 | 38 ft | 12 kts | 249° |
| 2026-04-12 03:33 | 21.04213 | -86.86454 | 35 ft | 14 kts | 304° |
| 2026-04-12 03:34 | 21.04275 | -86.86552 | 28 ft | 18 kts | 303° |
| 2026-04-12 03:34 | 21.04352 | -86.86673 | 21 ft | 21 kts | 302° |
| 2026-04-12 03:34 | 21.04429 | -86.86799 | 22 ft | 20 kts | 303° |
| 2026-04-12 03:34 | 21.04505 | -86.86920 | 23 ft | 19 kts | 304° |
| 2026-04-12 03:35 | 21.04583 | -86.87045 | 23 ft | 22 kts | 304° |
| 2026-04-12 03:35 | 21.04677 | -86.87197 | 26 ft | 27 kts | 303° |
| 2026-04-12 03:35 | 21.04779 | -86.87358 | 25 ft | 25 kts | 304° |